KBYL

Williamsburg-Whitley County Airport

Williamsburg, Kentucky, USA
METAR KBYL 230035Z AUTO 00000KT 10SM CLR 09/07 A3022 RMK AO1
Observed Flight Rules
Oct-23 @ 00:35 UTC (26 minutes ago) Visual Flight Rules
Visibility Clouds
10 miles
  • Clear skies
Temperatures Readings
Current 9°C / 48°F
Dewpoint 7°C / 45°F
Humidity 87%
Altimeter 30.22" Hg
Pressure 1023 hPa
Elevation 359
METAR KBYL 230035Z AUTO 00000KT 10SM CLR 09/07 A3022 RMK AO1
Observed Flight Rules
Oct-23 @ 00:35 UTC
(26 minutes ago)
VFR
Clouds
  • Clear skies
Temperature Dewpoint
9°C / 48°F 7°C / 45°F
Humidity Altimeter Pressure
87% 30.22" Hg 1023 hPa